CheckWX is a tool to help pilots better visualize weather data.  It is not intended as a substitute for an official pre-flight weather briefing.

18:09:03 UTC

KDRI METAR
Beauregard Regional Airport
De Ridder, Louisiana, USA
Current

14 mins ago

KDRI 241755Z AUTO 16007KT 10SM BKN033 BKN040 26/17 A2995 RMK AO2 T02550165 10258 20172
Observed
Apr-24 @ 17:55 UTC
Wind
  • 160° at 7 KTS
Visibility
10 SM
Flight Rules
VFR
Cloud Levels
  • Broken at 3,300' AGL
  • Broken at 4,000' AGL
Temperature
26°C / 79°F
Dewpoint
17°C / 63°F
Humidity
58%
Altimeter
29.95" Hg
Pressure
1014.22 hPa
Previous

34 mins ago

KDRI 241735Z AUTO 14008G14KT 10SM SCT031 SCT039 25/16 A2995 RMK AO2 T02530161
Observed
Apr-24 @ 17:35 UTC
Wind
  • 140° at 8 KTS
  • Gusting to 14 KTS
Visibility
10 SM
Flight Rules
VFR
Cloud Levels
  • Scattered at 3,100' AGL
  • Scattered at 3,900' AGL
Temperature
25°C / 77°F
Dewpoint
16°C / 61°F
Humidity
57%
Altimeter
29.95" Hg
Pressure
1014.22 hPa
Previous

54 mins ago

KDRI 241715Z AUTO 13009G14KT 10SM SCT030 SCT039 26/17 A2996 RMK AO2 T02560165
Observed
Apr-24 @ 17:15 UTC
Wind
  • 130° at 9 KTS
  • Gusting to 14 KTS
Visibility
10 SM
Flight Rules
VFR
Cloud Levels
  • Scattered at 3,000' AGL
  • Scattered at 3,900' AGL
Temperature
26°C / 79°F
Dewpoint
17°C / 63°F
Humidity
58%
Altimeter
29.96" Hg
Pressure
1014.52 hPa